createdAt,value
2018-07-07T00:00:34.189Z,60.8
2018-07-07T00:01:14.624Z,60.89
2018-07-07T00:01:54.980Z,61.28
2018-07-07T00:02:35.382Z,60.99
2018-07-07T00:03:15.876Z,61.28
2018-07-07T00:03:56.238Z,61.38
2018-07-07T00:04:36.705Z,61.77
2018-07-07T00:05:17.112Z,61.86
2018-07-07T00:05:57.530Z,62.05
2018-07-07T00:06:37.956Z,62.02
2018-07-07T00:07:18.397Z,62.02
2018-07-07T00:07:58.721Z,62.02
2018-07-07T00:08:39.322Z,61.83
2018-07-07T00:09:19.737Z,61.93
2018-07-07T00:10:00.133Z,61.74
2018-07-07T00:10:40.614Z,61.54
2018-07-07T00:11:21.153Z,62.02
2018-07-07T00:12:01.498Z,62.12
2018-07-07T00:12:42.312Z,62.51
2018-07-07T00:13:22.841Z,62.6
2018-07-07T00:14:06.171Z,62.7
2018-07-07T00:14:46.549Z,62.41
2018-07-07T00:15:27.080Z,62.6
2018-07-07T00:16:07.486Z,62.7
2018-07-07T00:16:47.886Z,62.79
2018-07-07T00:17:28.244Z,62.6
2018-07-07T00:18:08.624Z,62.89
2018-07-07T00:18:49.054Z,63.18
2018-07-07T00:19:29.558Z,63.15
2018-07-07T00:20:09.881Z,63.18
2018-07-07T00:20:50.327Z,62.89
2018-07-07T00:21:30.742Z,63.37
2018-07-07T00:22:11.196Z,63.57
2018-07-07T00:22:51.602Z,62.99
2018-07-07T00:23:32.013Z,63.28
2018-07-07T00:24:12.392Z,62.89
2018-07-07T00:24:52.814Z,63.28
2018-07-07T00:25:33.198Z,62.79
2018-07-07T00:26:13.555Z,62.99
2018-07-07T00:26:54.122Z,62.99
2018-07-07T00:27:34.426Z,63.47
2018-07-07T00:28:14.834Z,63.47
2018-07-07T00:28:55.231Z,63.37
2018-07-07T00:29:35.714Z,63.47
2018-07-07T00:30:16.088Z,63.57
2018-07-07T00:30:56.566Z,63.28
2018-07-07T00:31:36.998Z,63.18
2018-07-07T00:32:17.346Z,63.09
2018-07-07T00:32:57.769Z,63.18
2018-07-07T00:33:38.132Z,63.09
2018-07-07T00:34:18.558Z,63.18
2018-07-07T00:34:59.005Z,63.47
2018-07-07T00:35:39.414Z,62.89
2018-07-07T00:36:19.840Z,63.47
2018-07-07T00:37:00.232Z,63.47
2018-07-07T00:37:40.607Z,63.47
2018-07-07T00:38:21.044Z,63.09
2018-07-07T00:39:01.389Z,63.18
2018-07-07T00:39:41.850Z,62.79
2018-07-07T00:40:22.269Z,63.67
2018-07-07T00:41:02.638Z,63.47
2018-07-07T00:41:43.004Z,63.18
2018-07-07T00:42:23.428Z,62.79
2018-07-07T00:43:03.776Z,63.47
2018-07-07T00:43:44.176Z,63.47
2018-07-07T00:44:24.574Z,63.47
2018-07-07T00:45:04.949Z,63.09
2018-07-07T00:45:45.346Z,63.18
2018-07-07T00:46:25.813Z,62.99
2018-07-07T00:47:06.236Z,63.18
2018-07-07T00:47:46.607Z,63.18
2018-07-07T00:48:27.021Z,62.89
2018-07-07T00:49:07.474Z,63.09
2018-07-07T00:49:47.836Z,63.18
2018-07-07T00:50:28.228Z,62.99
2018-07-07T00:51:08.673Z,62.99
2018-07-07T00:51:49.050Z,63.09
2018-07-07T00:52:29.496Z,62.99
2018-07-07T00:53:09.925Z,62.99
2018-07-07T00:53:50.344Z,63.18
2018-07-07T00:54:30.840Z,63.67
2018-07-07T00:55:11.080Z,63.09
2018-07-07T00:55:51.495Z,63.09
2018-07-07T00:56:31.931Z,63.28
2018-07-07T00:57:12.318Z,63.57
2018-07-07T00:57:53.316Z,63.47
2018-07-07T00:58:33.107Z,62.89
2018-07-07T00:59:13.541Z,63.09
2018-07-07T00:59:53.901Z,62.79
2018-07-07T01:00:34.275Z,62.7
2018-07-07T01:01:14.741Z,62.7
2018-07-07T01:01:55.111Z,62.7
2018-07-07T01:02:35.480Z,62.7
2018-07-07T01:03:15.914Z,62.89
2018-07-07T01:03:56.281Z,62.96
2018-07-07T01:04:36.795Z,62.96
2018-07-07T01:05:17.133Z,62.76
2018-07-07T01:05:57.511Z,63.09
2018-07-07T01:06:37.985Z,62.76
2018-07-07T01:07:18.454Z,62.7
2018-07-07T01:07:58.772Z,62.79
2018-07-07T01:08:39.186Z,62.99
2018-07-07T01:09:19.605Z,63.28
2018-07-07T01:10:00.008Z,63.18
2018-07-07T01:10:40.442Z,63.28
2018-07-07T01:11:20.814Z,63.37
2018-07-07T01:12:01.274Z,63.28
2018-07-07T01:12:41.672Z,62.89
2018-07-07T01:13:22.082Z,62.86
2018-07-07T01:14:02.499Z,62.99
2018-07-07T01:14:42.897Z,63.44
2018-07-07T01:15:23.257Z,63.24
2018-07-07T01:16:03.711Z,63.44
2018-07-07T01:16:44.070Z,63.15
2018-07-07T01:17:24.456Z,64.02
2018-07-07T01:18:04.850Z,64.5
2018-07-07T01:18:45.256Z,65.08
2018-07-07T01:19:25.712Z,65.47
2018-07-07T01:20:06.159Z,65.56
2018-07-07T01:20:46.577Z,65.56
2018-07-07T01:21:26.917Z,65.56
2018-07-07T01:22:07.341Z,65.47
2018-07-07T01:22:47.767Z,65.37
2018-07-07T01:23:28.124Z,65.47
2018-07-07T01:24:08.503Z,65.56
2018-07-07T01:24:48.950Z,65.37
2018-07-07T01:25:29.315Z,65.37
2018-07-07T01:26:09.733Z,65.56
2018-07-07T01:26:50.169Z,65.75
2018-07-07T01:27:30.559Z,65.53
2018-07-07T01:28:11.067Z,65.72
2018-07-07T01:28:51.373Z,65.81
2018-07-07T01:29:31.795Z,65.81
2018-07-07T01:30:12.142Z,66.01
2018-07-07T01:30:52.575Z,65.81
2018-07-07T01:31:33.000Z,65.81
2018-07-07T01:32:13.403Z,65.81
2018-07-07T01:32:53.877Z,65.72
2018-07-07T01:33:34.312Z,65.81
2018-07-07T01:34:14.668Z,66.01
2018-07-07T01:34:55.075Z,65.91
2018-07-07T01:35:35.433Z,66.11
2018-07-07T01:36:15.892Z,65.72
2018-07-07T01:36:56.344Z,65.91
2018-07-07T01:37:36.731Z,65.91
2018-07-07T01:38:17.171Z,65.81
2018-07-07T01:38:57.489Z,66.2
2018-07-07T01:39:37.908Z,66.2
2018-07-07T01:40:18.501Z,66.3
2018-07-07T01:40:59.209Z,66.49
2018-07-07T01:41:39.436Z,66.88
2018-07-07T01:42:19.835Z,66.88
2018-07-07T01:43:00.265Z,67.65
2018-07-07T01:43:40.687Z,67.26
2018-07-07T01:44:21.063Z,67.16
2018-07-07T01:45:01.692Z,67.16
2018-07-07T01:45:41.912Z,67.36
2018-07-07T01:46:22.293Z,67.46
2018-07-07T01:47:02.759Z,67.84
2018-07-07T01:47:43.262Z,67.84
2018-07-07T01:48:23.529Z,68.42
2018-07-07T01:49:03.961Z,68.23
2018-07-07T01:49:44.335Z,68.23
2018-07-07T01:50:24.763Z,68.04
2018-07-07T01:51:05.253Z,68.23
2018-07-07T01:51:45.659Z,68.58
2018-07-07T01:52:26.157Z,68.71
2018-07-07T01:53:06.524Z,68.71
2018-07-07T01:53:46.942Z,68.19
2018-07-07T01:54:27.308Z,68
2018-07-07T01:55:07.675Z,68.58
2018-07-07T01:55:48.114Z,68.48
2018-07-07T01:56:28.538Z,68.48
2018-07-07T01:57:08.960Z,68.77
2018-07-07T01:57:49.382Z,68.87
2018-07-07T01:58:29.773Z,68.96
2018-07-07T01:59:10.129Z,68.58
2018-07-07T01:59:50.569Z,69.15
2018-07-07T02:00:31.037Z,69.15
2018-07-07T02:01:11.375Z,68.87
2018-07-07T02:07:02.600Z,69.99
2018-07-07T02:07:41.032Z,69.79
2018-07-07T02:08:21.378Z,70.28
2018-07-07T02:09:01.826Z,70.28
2018-07-07T02:09:42.237Z,70.28
2018-07-07T02:10:22.778Z,70.37
2018-07-07T02:11:02.969Z,70.86
2018-07-07T02:11:43.346Z,70.76
2018-07-07T02:12:23.740Z,71.04
2018-07-07T02:13:04.201Z,71.04
2018-07-07T02:13:44.602Z,70.76
2018-07-07T02:14:24.935Z,71.04
2018-07-07T02:15:05.325Z,70.86
2018-07-07T02:15:45.734Z,70.86
2018-07-07T02:16:26.138Z,70.95
2018-07-07T02:17:06.575Z,71.14
2018-07-07T02:17:47.099Z,71.04
2018-07-07T02:18:27.415Z,70.76
2018-07-07T02:19:07.797Z,70.86
2018-07-07T02:19:48.259Z,71.04
2018-07-07T02:20:28.614Z,70.28
2018-07-07T02:21:09.001Z,70.37
2018-07-07T02:21:49.444Z,70.47
2018-07-07T02:22:29.837Z,70.09
2018-07-07T02:23:10.244Z,70.09
2018-07-07T02:23:50.598Z,70.18
2018-07-07T02:24:31.003Z,70.09
2018-07-07T02:25:11.421Z,69.89
2018-07-07T02:25:51.795Z,70.28
2018-07-07T02:26:32.264Z,69.99
2018-07-07T02:27:12.643Z,70.09
2018-07-07T02:27:53.092Z,69.6
2018-07-07T02:28:33.480Z,70.28
2018-07-07T02:29:13.893Z,70.18
2018-07-07T02:29:54.282Z,69.6
2018-07-07T02:30:34.704Z,69.41
2018-07-07T02:31:15.065Z,70.28
2018-07-07T02:31:55.499Z,70.18
2018-07-07T02:32:35.883Z,70.18
2018-07-07T02:33:16.285Z,70.18
2018-07-07T02:33:56.699Z,70.18
2018-07-07T02:34:37.118Z,70.09
2018-07-07T02:35:17.454Z,69.99
2018-07-07T02:35:57.893Z,69.89
2018-07-07T02:36:38.385Z,70.09
2018-07-07T02:37:18.770Z,70.47
2018-07-07T02:37:59.192Z,70.43
2018-07-07T02:38:39.614Z,71.11
2018-07-07T02:39:20.013Z,71.04
2018-07-07T02:40:00.337Z,70.72
2018-07-07T02:40:40.770Z,71.01
2018-07-07T02:41:21.203Z,70.72
2018-07-07T02:42:01.580Z,71.11
2018-07-07T02:42:41.948Z,71.59
2018-07-07T02:43:22.410Z,71.49
2018-07-07T02:44:02.987Z,71.69
2018-07-07T02:44:43.313Z,71.78
2018-07-07T02:45:23.670Z,72.07
2018-07-07T02:46:04.118Z,71.59
2018-07-07T02:46:44.433Z,72.45
2018-07-07T02:47:24.911Z,72.45
2018-07-07T02:48:05.304Z,72.26
2018-07-07T02:48:45.720Z,72.17
2018-07-07T02:49:26.116Z,72.17
2018-07-07T02:50:06.502Z,72.07
2018-07-07T02:50:46.895Z,72.36
2018-07-07T02:51:27.336Z,72.36
2018-07-07T02:52:07.888Z,71.97
2018-07-07T02:52:48.575Z,71.97
2018-07-07T02:53:28.927Z,72.07
2018-07-07T02:54:09.183Z,71.97
2018-07-07T02:54:49.559Z,72.55
2018-07-07T02:55:30.009Z,72.36
2018-07-07T02:56:10.404Z,72.45
2018-07-07T02:56:50.870Z,72.26
2018-07-07T02:57:31.213Z,72.36
2018-07-07T02:58:11.677Z,72.55
2018-07-07T02:58:52.051Z,72.36
2018-07-07T02:59:32.427Z,72.26
2018-07-07T03:00:12.913Z,72.45
2018-07-07T03:00:53.355Z,73.03
2018-07-07T03:01:33.653Z,72.07
2018-07-07T03:02:14.049Z,72.65
2018-07-07T03:02:54.503Z,71.97
2018-07-07T03:03:34.946Z,72.26
2018-07-07T03:04:15.290Z,71.88
2018-07-07T03:04:55.838Z,72.07
2018-07-07T03:05:36.175Z,72.07
2018-07-07T03:06:16.553Z,72.17
2018-07-07T03:06:56.930Z,71.97
2018-07-07T03:07:37.310Z,72.07
2018-07-07T03:08:17.740Z,72.17
2018-07-07T03:08:58.135Z,72.65
2018-07-07T03:09:38.615Z,72.55
2018-07-07T03:10:19.006Z,72.74
2018-07-07T03:10:59.438Z,72.45
2018-07-07T03:11:39.856Z,72.36
2018-07-07T03:12:20.216Z,72.55
2018-07-07T03:13:00.688Z,72.55
2018-07-07T03:13:41.101Z,72.26
2018-07-07T03:14:21.460Z,72.45
2018-07-07T03:15:01.861Z,72.07
2018-07-07T03:15:42.320Z,72.07
2018-07-07T03:19:29.312Z,71.3
2018-07-07T03:20:57.254Z,71.4
2018-07-07T03:21:37.689Z,71.11
2018-07-07T03:22:18.069Z,71.2
2018-07-07T03:22:58.491Z,71.01
2018-07-07T03:23:38.879Z,71.01
2018-07-07T03:24:19.307Z,70.62
2018-07-07T03:24:59.738Z,71.01
2018-07-07T03:25:40.135Z,70.56
2018-07-07T03:26:20.532Z,70.43
2018-07-07T03:27:00.977Z,70.05
2018-07-07T03:27:41.342Z,70.37
2018-07-07T03:28:21.757Z,69.89
2018-07-07T03:29:02.147Z,70.24
2018-07-07T03:29:42.519Z,69.89
2018-07-07T03:30:22.918Z,69.85
2018-07-07T03:31:03.351Z,70.15
2018-07-07T03:31:43.779Z,70.15
2018-07-07T03:32:24.238Z,70.15
2018-07-07T03:33:04.545Z,70.15
2018-07-07T03:33:44.951Z,70.62
2018-07-07T03:34:25.362Z,70.72
2018-07-07T03:35:05.803Z,71.01
2018-07-07T03:35:46.160Z,70.15
2018-07-07T03:36:26.542Z,70.05
2018-07-07T03:37:07.079Z,69.76
2018-07-07T03:37:47.406Z,68.99
2018-07-07T03:38:27.836Z,68.6
2018-07-07T03:39:08.275Z,68.03
2018-07-07T03:39:48.593Z,68.22
2018-07-07T03:40:29.028Z,68.22
2018-07-07T03:41:09.497Z,67.93
2018-07-07T03:41:50.045Z,67.83
2018-07-07T03:42:30.370Z,67.45
2018-07-07T03:43:10.846Z,67.35
2018-07-07T03:43:51.207Z,67.45
2018-07-07T03:44:31.651Z,67.35
2018-07-07T03:45:12.043Z,67.26
2018-07-07T03:45:52.467Z,67.74
2018-07-07T03:46:32.840Z,67.65
2018-07-07T03:47:13.228Z,67.07
2018-07-07T03:47:53.638Z,66.78
2018-07-07T03:48:34.056Z,66.58
2018-07-07T03:49:14.515Z,66.49
2018-07-07T03:49:54.823Z,66.49
2018-07-07T03:50:35.261Z,66.58
2018-07-07T03:51:15.623Z,66.68
2018-07-07T03:51:56.081Z,66.78
2018-07-07T03:52:36.458Z,67.55
2018-07-07T03:53:16.848Z,67.45
2018-07-07T03:53:57.224Z,67.35
2018-07-07T03:54:37.674Z,67.55
2018-07-07T03:55:18.110Z,67.74
2018-07-07T03:55:58.466Z,67.65
2018-07-07T03:56:38.937Z,68.32
2018-07-07T03:57:19.339Z,68.22
2018-07-07T03:57:59.773Z,68.13
2018-07-07T03:58:40.186Z,68.6
2018-07-07T03:59:20.612Z,68.6
2018-07-07T04:00:01.013Z,68.38
2018-07-07T04:00:41.446Z,68.76
2018-07-07T04:01:21.858Z,68.76
2018-07-07T04:02:02.305Z,68.67
2018-07-07T04:02:42.769Z,69.06
2018-07-07T04:03:23.209Z,68.76
2018-07-07T04:50:27.732Z,73.35
2018-07-07T04:51:14.249Z,73.44
2018-07-07T04:51:54.700Z,72.92
2018-07-07T04:52:35.093Z,72.67
2018-07-07T04:53:15.508Z,72.58
2018-07-07T04:53:55.885Z,72.96
2018-07-07T04:54:36.315Z,72.38
2018-07-07T04:55:16.637Z,71.91
2018-07-07T04:55:57.081Z,72.09
2018-07-07T04:56:37.484Z,71.42
2018-07-07T04:57:17.883Z,71.33
2018-07-07T04:57:58.348Z,71.17
2018-07-07T04:58:38.690Z,70.59
2018-07-07T04:59:19.120Z,70.5
2018-07-07T04:59:59.473Z,70.11
2018-07-07T05:00:39.939Z,70.01
2018-07-07T05:01:20.328Z,69.44
2018-07-07T05:02:00.694Z,69.09
2018-07-07T05:02:41.141Z,68.6
2018-07-07T05:03:21.542Z,67.83
2018-07-07T05:04:01.930Z,66.91
2018-07-07T05:04:42.450Z,66.33
2018-07-07T05:05:22.849Z,65.88
2018-07-07T05:06:03.242Z,65.3
2018-07-07T05:06:43.607Z,64.43
2018-07-07T05:07:24.023Z,64.37
2018-07-07T05:08:04.483Z,63.41
2018-07-07T05:08:44.864Z,63.31
2018-07-07T05:09:25.406Z,63.15
2018-07-07T05:10:06.030Z,62.28
2018-07-07T05:10:46.407Z,61.8
2018-07-07T05:11:26.841Z,61.71
2018-07-07T05:12:07.140Z,60.96
2018-07-07T05:12:47.639Z,61.06
2018-07-07T05:13:28.143Z,60.22
2018-07-07T05:14:08.586Z,59.55
2018-07-07T05:14:48.958Z,58.03
2018-07-07T05:15:29.405Z,57.74
2018-07-07T05:16:09.998Z,56.9
2018-07-07T05:16:50.401Z,55.77
2018-07-07T05:17:30.828Z,54.99
2018-07-07T05:18:11.271Z,54.35
2018-07-07T05:18:51.785Z,53.86
2018-07-07T05:19:32.127Z,52.92
2018-07-07T05:20:12.529Z,52.46
2018-07-07T05:20:52.989Z,51.01
2018-07-07T05:21:33.322Z,50.43
2018-07-07T05:22:13.716Z,50.33
2018-07-07T05:22:54.103Z,50.33
2018-07-07T05:23:34.510Z,50.33
2018-07-07T05:24:14.925Z,50.35
2018-07-07T05:24:55.376Z,50.35
2018-07-07T05:25:35.754Z,50.07
2018-07-07T05:26:16.245Z,49.68
2018-07-07T05:26:59.578Z,49.1
2018-07-07T05:27:39.987Z,48.64
2018-07-07T05:28:20.402Z,48.18
2018-07-07T05:29:00.822Z,47.69
2018-07-07T05:29:41.249Z,47.03
2018-07-07T05:30:21.670Z,45.97
2018-07-07T05:31:02.114Z,45.97
2018-07-07T05:31:42.547Z,45.78
2018-07-07T05:32:22.901Z,45.31
2018-07-07T05:33:03.332Z,45.61
2018-07-07T05:33:43.754Z,45.31
2018-07-07T05:35:52.230Z,43.78
2018-07-07T05:36:30.623Z,43.61
2018-07-07T05:37:10.948Z,43.02
2018-07-07T05:37:51.320Z,42.74
2018-07-07T05:38:31.703Z,42.36
2018-07-07T05:39:12.135Z,41.98
2018-07-07T05:39:52.549Z,42.27
2018-07-07T05:40:32.912Z,42.08
2018-07-07T05:41:13.339Z,41.98
2018-07-07T05:41:53.748Z,42.27
2018-07-07T05:42:34.137Z,42.27
2018-07-07T05:43:14.549Z,42.46
2018-07-07T05:43:54.998Z,43.02
2018-07-07T05:44:35.410Z,43.1
2018-07-07T05:45:15.821Z,43.3
2018-07-07T05:45:56.254Z,43.2
2018-07-07T05:46:36.627Z,43.2
2018-07-07T05:47:17.044Z,43.2
2018-07-07T05:47:57.514Z,43.01
2018-07-07T05:48:37.904Z,42.83
2018-07-07T05:49:18.321Z,43.2
2018-07-07T05:49:58.777Z,43.01
2018-07-07T05:50:39.130Z,43.3
2018-07-07T05:51:19.637Z,43.2
2018-07-07T05:51:59.994Z,43.3
2018-07-07T05:52:40.364Z,43.2
2018-07-07T05:53:20.746Z,43.12
2018-07-07T05:54:01.204Z,43.22
2018-07-07T05:54:41.556Z,42.93
2018-07-07T05:55:21.991Z,42.83
2018-07-07T05:56:02.410Z,42.54
2018-07-07T05:56:42.814Z,42.93
2018-07-07T05:57:23.285Z,43.12
2018-07-07T05:58:03.651Z,42.54
2018-07-07T05:58:44.021Z,42.15
2018-07-07T05:59:24.431Z,42.15
2018-07-07T06:00:04.902Z,41.86
2018-07-07T06:00:45.308Z,42.74
2018-07-07T06:01:25.668Z,43.12
2018-07-07T06:02:06.060Z,43.32
2018-07-07T06:02:46.523Z,43.41
2018-07-07T06:03:26.887Z,43.51
2018-07-07T06:04:07.400Z,43.51
2018-07-07T06:04:47.732Z,43.2
2018-07-07T06:05:28.213Z,43.78
2018-07-07T06:06:08.638Z,44.27
2018-07-07T06:06:49.085Z,44.44
2018-07-07T06:07:29.471Z,43.98
2018-07-07T06:08:09.917Z,43.27
2018-07-07T06:08:50.421Z,43.18
2018-07-07T06:09:30.869Z,43.27
2018-07-07T06:10:11.362Z,43.66
2018-07-07T06:10:51.699Z,43.76
2018-07-07T06:11:32.164Z,44.34
2018-07-07T06:13:54.786Z,44.9
2018-07-07T06:14:36.165Z,45.48
2018-07-07T06:15:16.697Z,45.58
2018-07-07T06:15:56.960Z,45.39
2018-07-07T06:16:37.334Z,45.29
2018-07-07T06:17:18.564Z,46.04
2018-07-07T06:17:58.982Z,45.85
2018-07-07T06:18:39.369Z,46.14
2018-07-07T06:19:19.747Z,46.04
2018-07-07T06:20:00.186Z,46.04
2018-07-07T06:20:40.625Z,45.17
2018-07-07T06:21:21.550Z,44.59
2018-07-07T06:22:01.952Z,44.1
2018-07-07T06:22:42.302Z,44.3
2018-07-07T06:23:22.743Z,44.49
2018-07-07T06:24:03.276Z,44.49
2018-07-07T06:24:43.584Z,44.2
2018-07-07T06:25:23.934Z,44.68
2018-07-07T06:26:04.498Z,44.4
2018-07-07T06:26:44.835Z,44.68
2018-07-07T06:27:25.420Z,44.68
2018-07-07T06:28:05.832Z,44.78
2018-07-07T06:28:46.338Z,44.78
2018-07-07T06:29:26.655Z,44.59
2018-07-07T06:30:07.494Z,44.78
2018-07-07T06:30:47.948Z,44.68
2018-07-07T06:31:28.320Z,44.78
2018-07-07T06:32:08.737Z,44.4
2018-07-07T06:32:49.103Z,44.01
2018-07-07T06:33:29.546Z,44.37
2018-07-07T06:35:17.438Z,45.15
2018-07-07T06:35:57.881Z,45.34
2018-07-07T06:36:38.309Z,45.44
2018-07-07T06:37:18.719Z,45.83
2018-07-07T06:37:59.104Z,46.22
2018-07-07T06:38:39.464Z,45.54
2018-07-07T06:39:19.847Z,45.44
2018-07-07T06:40:00.430Z,45.44
2018-07-07T06:40:40.787Z,45.44
2018-07-07T06:41:21.227Z,45.47
2018-07-07T06:42:01.682Z,45.37
2018-07-07T06:42:42.015Z,45.47
2018-07-07T06:43:22.579Z,45.56
2018-07-07T06:44:02.864Z,45.47
2018-07-07T06:44:43.236Z,45.56
2018-07-07T06:45:23.689Z,45.56
2018-07-07T06:46:04.115Z,45.56
2018-07-07T06:46:44.545Z,45.78
2018-07-07T06:47:24.899Z,45.39
2018-07-07T06:48:05.364Z,45.29
2018-07-07T06:48:45.802Z,44.81
2018-07-07T06:49:26.151Z,44.51
2018-07-07T06:50:06.626Z,44.03
2018-07-07T06:50:47.099Z,43.86
2018-07-07T06:51:27.517Z,43.57
2018-07-07T06:52:07.875Z,43.37
2018-07-07T06:52:48.541Z,43.1
2018-07-07T06:53:29.093Z,42.91
2018-07-07T06:54:09.217Z,41.86
2018-07-07T06:54:49.620Z,41.96
2018-07-07T06:55:30.023Z,41.86
2018-07-07T06:56:10.456Z,41.67
2018-07-07T06:56:50.923Z,40.62
2018-07-07T06:57:31.287Z,40.62
2018-07-07T06:58:11.738Z,40.42
2018-07-07T06:58:52.223Z,39.75
2018-07-07T07:04:58.315Z,37.64
2018-07-07T07:05:37.606Z,37.46
2018-07-07T07:06:18.108Z,37.1
2018-07-07T07:06:58.558Z,37.08
2018-07-07T07:07:38.997Z,36.9
2018-07-07T07:08:19.469Z,37.1
2018-07-07T07:08:59.833Z,36.71
2018-07-07T07:09:40.310Z,35.65
2018-07-07T07:10:20.687Z,35.94
2018-07-07T07:11:01.046Z,35.55
2018-07-07T07:11:41.526Z,35.65
2018-07-07T07:12:21.888Z,35.38
2018-07-07T07:13:02.335Z,35.47
2018-07-07T07:13:42.788Z,34.61
2018-07-07T07:14:23.107Z,33.64
2018-07-07T07:15:03.652Z,33.34
2018-07-07T07:15:43.997Z,33.34
2018-07-07T07:16:24.433Z,33.34
2018-07-07T07:17:04.900Z,33.36
2018-07-07T07:17:45.309Z,32.78
2018-07-07T07:18:25.867Z,32.39
2018-07-07T07:19:09.145Z,32.79
2018-07-07T07:19:49.457Z,32.01
2018-07-07T07:20:29.884Z,32.62
2018-07-07T07:21:10.332Z,31.84
2018-07-07T07:26:15.009Z,30.79
2018-07-07T07:26:55.419Z,30.69
2018-07-07T07:27:35.871Z,30.49
2018-07-07T07:28:16.230Z,30.69
2018-07-07T07:28:56.671Z,30.59
2018-07-07T07:29:37.126Z,30.79
2018-07-07T07:30:17.580Z,30.59
2018-07-07T07:30:58.055Z,30.22
2018-07-07T07:31:38.511Z,30.51
2018-07-07T07:32:18.869Z,30.22
2018-07-07T07:32:59.364Z,30.02
2018-07-07T07:33:39.745Z,29.73
2018-07-07T07:34:20.272Z,29.53
2018-07-07T07:35:00.593Z,29.93
2018-07-07T07:35:41.014Z,29.83
2018-07-07T07:36:21.403Z,29.73
2018-07-07T07:37:01.894Z,29.83
2018-07-07T07:37:42.190Z,29.74
2018-07-07T07:38:22.710Z,29.45
2018-07-07T07:39:03.461Z,29.45
2018-07-07T07:39:43.989Z,29.66
2018-07-07T07:40:24.311Z,29.17
2018-07-07T07:41:04.745Z,29.25
2018-07-07T07:41:45.135Z,28.58
2018-07-07T07:42:25.655Z,28.49
2018-07-07T07:43:06.025Z,28.78
2018-07-07T07:43:46.564Z,28.29
2018-07-07T07:44:27.366Z,28.78
2018-07-07T07:45:07.463Z,28.68
2018-07-07T07:45:47.824Z,28.09
2018-07-07T07:46:28.255Z,28.29
2018-07-07T07:47:08.810Z,28.09
2018-07-07T07:47:49.241Z,28.19
2018-07-07T07:48:29.751Z,28.09
2018-07-07T07:49:10.067Z,28.09
2018-07-07T07:49:50.492Z,28.19
2018-07-07T07:50:30.860Z,27.8
2018-07-07T07:51:11.308Z,27.9
2018-07-07T07:51:51.741Z,27.9
2018-07-07T07:52:32.215Z,27.7
2018-07-07T07:53:12.665Z,27.78
2018-07-07T07:53:53.071Z,28.28
2018-07-07T07:54:33.502Z,28.47
2018-07-07T07:55:13.963Z,28.47
2018-07-07T07:55:54.358Z,28.75
2018-07-07T07:56:34.876Z,29.34
2018-07-07T07:57:15.207Z,29.24
2018-07-07T07:57:55.637Z,29.14
2018-07-07T07:58:36.102Z,29.24
2018-07-07T07:59:16.523Z,29.53
2018-07-07T07:59:56.988Z,29.24
2018-07-07T08:00:37.348Z,29.14
2018-07-07T08:01:17.779Z,29.24
2018-07-07T08:01:58.214Z,29.16
2018-07-07T08:02:38.630Z,29.34
2018-07-07T08:03:19.117Z,28.96
2018-07-07T08:03:59.517Z,29.16
2018-07-07T08:04:39.966Z,29.35
2018-07-07T08:05:20.435Z,28.57
2018-07-07T08:06:00.828Z,28.38
2018-07-07T08:06:41.276Z,28.39
2018-07-07T08:07:21.751Z,28.08
2018-07-07T08:08:02.216Z,28.09
2018-07-07T08:08:42.607Z,28.29
2018-07-07T08:09:22.997Z,27.61
2018-07-07T08:10:03.634Z,28.29
2018-07-07T08:10:44.099Z,28
2018-07-07T08:11:24.905Z,27.52
2018-07-07T08:12:05.501Z,27.23
2018-07-07T08:14:23.246Z,27.7
2018-07-07T08:15:04.532Z,27.31
2018-07-07T08:15:44.915Z,27.42
2018-07-07T08:16:25.310Z,27.42
2018-07-07T08:17:05.866Z,27.03
2018-07-07T08:17:46.303Z,26.93
2018-07-07T08:18:26.747Z,27.11
2018-07-07T08:19:07.154Z,27.23
2018-07-07T08:19:47.561Z,26.93
2018-07-07T08:20:27.985Z,26.54
2018-07-07T08:21:08.445Z,26.54
2018-07-07T08:21:48.846Z,26.25
2018-07-07T08:22:29.374Z,26.16
2018-07-07T08:23:09.691Z,25.96
2018-07-07T08:23:50.130Z,25.77
2018-07-07T08:24:30.585Z,25.49
2018-07-07T08:25:10.978Z,25.48
2018-07-07T08:25:51.391Z,25.77
2018-07-07T08:26:31.920Z,25.96
2018-07-07T08:27:12.383Z,25.96
2018-07-07T08:27:52.794Z,25.96
2018-07-07T08:28:33.327Z,25.18
2018-07-07T08:29:14.320Z,25.18
2018-07-07T08:29:54.499Z,25.38
2018-07-07T08:30:34.862Z,25.38
2018-07-07T08:31:15.335Z,25.48
2018-07-07T08:31:55.758Z,25.57
2018-07-07T08:32:36.184Z,24.98
2018-07-07T08:33:16.719Z,25.1
2018-07-07T08:33:57.413Z,25.1
2018-07-07T08:34:37.906Z,24.31
2018-07-07T08:35:18.407Z,24.21
2018-07-07T08:35:58.729Z,23.82
2018-07-07T08:36:39.124Z,23.83
2018-07-07T08:37:19.541Z,23.63
2018-07-07T08:37:59.981Z,23.63
2018-07-07T08:38:40.408Z,23.44
2018-07-07T08:39:20.890Z,23.25
2018-07-07T08:40:01.328Z,23.54
2018-07-07T08:40:41.689Z,23.44
2018-07-07T08:41:22.123Z,23.24
2018-07-07T08:42:02.590Z,23.35
2018-07-07T08:42:42.933Z,23.34
2018-07-07T08:43:23.375Z,23.35
2018-07-07T08:44:03.821Z,23.55
2018-07-07T08:44:44.201Z,23.55
2018-07-07T08:45:24.592Z,22.77
2018-07-07T08:46:05.024Z,22.48
2018-07-07T08:46:45.437Z,22.38
2018-07-07T08:47:25.860Z,22.38
2018-07-07T08:48:06.273Z,22.28
2018-07-07T08:48:46.714Z,22.28
2018-07-07T08:49:27.293Z,22.48
2018-07-07T08:50:07.557Z,21.89
2018-07-07T08:50:47.970Z,22.3
2018-07-07T08:51:28.788Z,22.19
2018-07-07T08:52:09.246Z,22.28
2018-07-07T08:52:52.486Z,21.9
2018-07-07T08:53:32.906Z,21.8
2018-07-07T08:54:13.277Z,21.51
2018-07-07T08:54:53.704Z,21.61
2018-07-07T08:55:34.113Z,22
2018-07-07T08:56:14.682Z,21.9
2018-07-07T08:56:55.121Z,21.8
2018-07-07T08:57:35.537Z,21.99
2018-07-07T08:58:15.950Z,21.99
2018-07-07T08:58:56.321Z,22.19
2018-07-07T08:59:36.721Z,21.31
2018-07-07T09:00:18.550Z,21.12
2018-07-07T09:00:58.426Z,21.02
2018-07-07T09:01:38.786Z,21.12
2018-07-07T09:02:19.305Z,21.42
2018-07-07T09:02:59.633Z,21.12
2018-07-07T09:03:40.090Z,20.44
2018-07-07T09:04:20.520Z,21.12
2018-07-07T09:05:01.193Z,21.04
2018-07-07T09:05:41.497Z,20.54
2018-07-07T09:06:21.911Z,21.42
2018-07-07T09:07:02.247Z,21.22
2018-07-07T09:07:42.735Z,20.54
2018-07-07T09:08:24.060Z,21.12
2018-07-07T09:09:04.550Z,21.61
2018-07-07T09:09:45.015Z,21.41
2018-07-07T09:10:25.845Z,21.02
2018-07-07T09:11:06.342Z,21.33
2018-07-07T09:11:46.756Z,21.12
2018-07-07T09:12:27.111Z,21.03
2018-07-07T09:13:07.593Z,21.42
2018-07-07T09:13:47.985Z,20.93
2018-07-07T09:14:28.405Z,20.64
2018-07-07T09:15:08.855Z,20.44
2018-07-07T09:15:49.267Z,20.83
2018-07-07T09:16:30.098Z,20.54
2018-07-07T09:17:10.489Z,20.64
2018-07-07T09:17:51.503Z,20.24
2018-07-07T09:18:31.922Z,20.44
2018-07-07T09:19:13.266Z,20.24
2018-07-07T09:19:53.712Z,20.54
2018-07-07T09:20:34.131Z,19.86
2018-07-07T09:21:14.740Z,19.17
2018-07-07T09:21:55.437Z,19.56
2018-07-07T09:22:35.874Z,19.46
2018-07-07T09:23:16.120Z,19.46
2018-07-07T09:23:56.562Z,19.96
2018-07-07T09:24:37.176Z,19.67
2018-07-07T09:25:17.570Z,19.57
2018-07-07T09:25:57.996Z,19.57
2018-07-07T09:26:38.426Z,19.29
2018-07-07T09:27:18.961Z,19.48
2018-07-07T09:27:59.430Z,19.29
2018-07-07T09:28:39.890Z,19.49
2018-07-07T09:29:20.334Z,19.78
2018-07-07T09:30:00.732Z,19.29
2018-07-07T09:30:41.149Z,19.29
2018-07-07T09:31:21.589Z,18.4
2018-07-07T09:32:02.117Z,18.3
2018-07-07T09:32:42.486Z,19.19
2018-07-07T09:33:22.840Z,19.09
2018-07-07T09:34:03.299Z,19.58
2018-07-07T09:34:43.802Z,19.29
2018-07-07T09:35:24.125Z,19.29
2018-07-07T09:36:04.556Z,19
2018-07-07T09:36:45.024Z,18.7
2018-07-07T09:37:25.466Z,18.79
2018-07-07T09:38:06.097Z,18.5
2018-07-07T09:38:46.557Z,18.6
2018-07-07T09:39:26.885Z,18.99
2018-07-07T09:40:07.303Z,18.51
2018-07-07T09:40:47.834Z,18.9
2018-07-07T09:41:28.223Z,19.2
2018-07-07T09:42:08.592Z,19.21
2018-07-07T09:42:48.996Z,18.42
2018-07-07T09:43:29.490Z,18.42
2018-07-07T09:44:09.980Z,18.13
2018-07-07T09:44:50.333Z,18.13
2018-07-07T09:45:30.874Z,18.13
2018-07-07T09:46:11.588Z,18.42
2018-07-07T09:46:52.001Z,18.12
2018-07-07T09:47:32.463Z,18.33
2018-07-07T09:48:13.047Z,18.13
2018-07-07T09:48:53.443Z,17.93
2018-07-07T09:49:33.847Z,18.42
2018-07-07T09:50:14.289Z,18.23
2018-07-07T09:50:54.708Z,18.42
2018-07-07T09:51:35.165Z,18.23
2018-07-07T09:52:15.509Z,18.02
2018-07-07T09:52:55.941Z,17.35
2018-07-07T09:53:36.341Z,17.94
2018-07-07T09:54:16.808Z,17.54